sensor_id;sensor_type;location;lat;lon;timestamp;temperature;humidity
63445;DHT22;49573;47.682;9.170;2024-01-06T00:02:26;6.30;88.00
63445;DHT22;49573;47.682;9.170;2024-01-06T00:05:14;6.30;88.00
63445;DHT22;49573;47.682;9.170;2024-01-06T00:08:00;6.30;88.00
63445;DHT22;49573;47.682;9.170;2024-01-06T00:10:46;6.30;88.00
63445;DHT22;49573;47.682;9.170;2024-01-06T00:13:32;6.30;88.00
63445;DHT22;49573;47.682;9.170;2024-01-06T00:16:18;6.30;88.00
63445;DHT22;49573;47.682;9.170;2024-01-06T00:19:04;6.30;87.90
63445;DHT22;49573;47.682;9.170;2024-01-06T00:21:52;6.30;88.10
63445;DHT22;49573;47.682;9.170;2024-01-06T00:24:38;6.30;87.90
63445;DHT22;49573;47.682;9.170;2024-01-06T00:27:24;6.30;88.00
63445;DHT22;49573;47.682;9.170;2024-01-06T00:30:11;6.40;88.00
63445;DHT22;49573;47.682;9.170;2024-01-06T00:32:57;6.30;87.80
63445;DHT22;49573;47.682;9.170;2024-01-06T00:35:43;6.30;88.00
63445;DHT22;49573;47.682;9.170;2024-01-06T00:38:30;6.30;88.10
63445;DHT22;49573;47.682;9.170;2024-01-06T00:41:16;6.30;88.10
63445;DHT22;49573;47.682;9.170;2024-01-06T00:44:02;6.30;88.00
63445;DHT22;49573;47.682;9.170;2024-01-06T00:46:48;6.30;88.10
63445;DHT22;49573;47.682;9.170;2024-01-06T00:49:34;6.30;88.00
63445;DHT22;49573;47.682;9.170;2024-01-06T00:52:21;6.30;88.20
63445;DHT22;49573;47.682;9.170;2024-01-06T00:55:08;6.30;88.10
63445;DHT22;49573;47.682;9.170;2024-01-06T00:57:54;6.30;88.20
63445;DHT22;49573;47.682;9.170;2024-01-06T01:00:40;6.20;88.20
63445;DHT22;49573;47.682;9.170;2024-01-06T01:03:27;6.20;88.20
63445;DHT22;49573;47.682;9.170;2024-01-06T01:06:13;6.20;88.30
63445;DHT22;49573;47.682;9.170;2024-01-06T01:08:59;6.20;88.30
63445;DHT22;49573;47.682;9.170;2024-01-06T01:11:46;6.20;88.30
63445;DHT22;49573;47.682;9.170;2024-01-06T01:14:32;6.20;88.40
63445;DHT22;49573;47.682;9.170;2024-01-06T01:17:18;6.20;88.20
63445;DHT22;49573;47.682;9.170;2024-01-06T01:20:05;6.30;88.20
63445;DHT22;49573;47.682;9.170;2024-01-06T01:22:52;6.20;88.30
63445;DHT22;49573;47.682;9.170;2024-01-06T01:25:38;6.20;88.30
63445;DHT22;49573;47.682;9.170;2024-01-06T01:28:25;6.20;88.20
63445;DHT22;49573;47.682;9.170;2024-01-06T01:31:12;6.20;88.30
63445;DHT22;49573;47.682;9.170;2024-01-06T01:33:59;6.20;88.30
63445;DHT22;49573;47.682;9.170;2024-01-06T01:36:45;6.20;88.50
63445;DHT22;49573;47.682;9.170;2024-01-06T01:39:31;6.30;88.20
63445;DHT22;49573;47.682;9.170;2024-01-06T01:42:17;6.20;88.20
63445;DHT22;49573;47.682;9.170;2024-01-06T01:45:05;6.20;88.10
63445;DHT22;49573;47.682;9.170;2024-01-06T01:47:51;6.20;88.20
63445;DHT22;49573;47.682;9.170;2024-01-06T01:50:37;6.20;88.30
63445;DHT22;49573;47.682;9.170;2024-01-06T01:53:23;6.30;88.30
63445;DHT22;49573;47.682;9.170;2024-01-06T01:56:11;6.30;88.30
63445;DHT22;49573;47.682;9.170;2024-01-06T01:58:58;6.20;88.20
63445;DHT22;49573;47.682;9.170;2024-01-06T02:01:46;6.20;88.40
63445;DHT22;49573;47.682;9.170;2024-01-06T02:04:32;6.20;88.30
63445;DHT22;49573;47.682;9.170;2024-01-06T02:07:18;6.20;88.30
63445;DHT22;49573;47.682;9.170;2024-01-06T02:10:05;6.20;88.30
63445;DHT22;49573;47.682;9.170;2024-01-06T02:12:52;6.20;88.20
63445;DHT22;49573;47.682;9.170;2024-01-06T02:15:38;6.20;88.10
63445;DHT22;49573;47.682;9.170;2024-01-06T02:18:25;6.20;88.20
63445;DHT22;49573;47.682;9.170;2024-01-06T02:21:11;6.20;88.20
63445;DHT22;49573;47.682;9.170;2024-01-06T02:23:59;6.20;88.10
63445;DHT22;49573;47.682;9.170;2024-01-06T02:26:45;6.20;88.20
63445;DHT22;49573;47.682;9.170;2024-01-06T02:29:31;6.20;88.30
63445;DHT22;49573;47.682;9.170;2024-01-06T02:32:17;6.20;88.00
63445;DHT22;49573;47.682;9.170;2024-01-06T02:35:03;6.20;88.10
63445;DHT22;49573;47.682;9.170;2024-01-06T02:37:49;6.20;88.10
63445;DHT22;49573;47.682;9.170;2024-01-06T02:40:36;6.10;88.10
63445;DHT22;49573;47.682;9.170;2024-01-06T02:43:23;6.00;88.20
63445;DHT22;49573;47.682;9.170;2024-01-06T02:46:09;6.00;88.30
63445;DHT22;49573;47.682;9.170;2024-01-06T02:48:55;6.00;88.30
63445;DHT22;49573;47.682;9.170;2024-01-06T02:51:41;6.00;88.40
63445;DHT22;49573;47.682;9.170;2024-01-06T02:54:27;6.00;88.40
63445;DHT22;49573;47.682;9.170;2024-01-06T02:57:14;6.00;88.40
63445;DHT22;49573;47.682;9.170;2024-01-06T03:00:01;6.00;88.60
63445;DHT22;49573;47.682;9.170;2024-01-06T03:02:47;5.90;88.60
63445;DHT22;49573;47.682;9.170;2024-01-06T03:05:33;5.80;88.40
63445;DHT22;49573;47.682;9.170;2024-01-06T03:08:19;5.90;88.50
63445;DHT22;49573;47.682;9.170;2024-01-06T03:11:05;5.80;88.40
63445;DHT22;49573;47.682;9.170;2024-01-06T03:13:52;5.80;88.20
63445;DHT22;49573;47.682;9.170;2024-01-06T03:16:38;5.70;88.40
63445;DHT22;49573;47.682;9.170;2024-01-06T03:19:25;5.80;88.20
63445;DHT22;49573;47.682;9.170;2024-01-06T03:22:13;5.80;88.30
63445;DHT22;49573;47.682;9.170;2024-01-06T03:24:59;5.80;88.30
63445;DHT22;49573;47.682;9.170;2024-01-06T03:27:45;5.90;88.20
63445;DHT22;49573;47.682;9.170;2024-01-06T03:30:32;5.80;88.20
63445;DHT22;49573;47.682;9.170;2024-01-06T03:33:18;5.90;88.20
63445;DHT22;49573;47.682;9.170;2024-01-06T03:36:05;5.80;88.30
63445;DHT22;49573;47.682;9.170;2024-01-06T03:38:52;5.90;88.40
63445;DHT22;49573;47.682;9.170;2024-01-06T03:41:38;5.80;88.00
63445;DHT22;49573;47.682;9.170;2024-01-06T03:44:24;5.80;87.90
63445;DHT22;49573;47.682;9.170;2024-01-06T03:47:11;5.70;87.90
63445;DHT22;49573;47.682;9.170;2024-01-06T03:49:57;5.80;87.70
63445;DHT22;49573;47.682;9.170;2024-01-06T03:52:43;5.70;87.70
63445;DHT22;49573;47.682;9.170;2024-01-06T03:55:29;5.70;87.80
63445;DHT22;49573;47.682;9.170;2024-01-06T03:58:15;5.70;87.90
63445;DHT22;49573;47.682;9.170;2024-01-06T04:01:02;5.70;87.80
63445;DHT22;49573;47.682;9.170;2024-01-06T04:03:49;5.60;88.10
63445;DHT22;49573;47.682;9.170;2024-01-06T04:06:35;5.70;88.10
63445;DHT22;49573;47.682;9.170;2024-01-06T04:09:21;5.70;88.00
63445;DHT22;49573;47.682;9.170;2024-01-06T04:12:07;5.70;88.00
63445;DHT22;49573;47.682;9.170;2024-01-06T04:14:53;5.70;88.10
63445;DHT22;49573;47.682;9.170;2024-01-06T04:17:39;5.70;88.10
63445;DHT22;49573;47.682;9.170;2024-01-06T04:20:27;5.70;88.00
63445;DHT22;49573;47.682;9.170;2024-01-06T04:23:13;5.70;88.00
63445;DHT22;49573;47.682;9.170;2024-01-06T04:25:59;5.70;88.20
63445;DHT22;49573;47.682;9.170;2024-01-06T04:28:45;5.70;88.10
63445;DHT22;49573;47.682;9.170;2024-01-06T04:31:31;5.60;88.00
63445;DHT22;49573;47.682;9.170;2024-01-06T04:34:17;5.60;88.10
63445;DHT22;49573;47.682;9.170;2024-01-06T04:37:05;5.60;87.90
63445;DHT22;49573;47.682;9.170;2024-01-06T04:39:51;5.60;88.10
63445;DHT22;49573;47.682;9.170;2024-01-06T04:42:37;5.50;87.90
63445;DHT22;49573;47.682;9.170;2024-01-06T04:45:23;5.50;87.90
63445;DHT22;49573;47.682;9.170;2024-01-06T04:48:12;5.60;87.70
63445;DHT22;49573;47.682;9.170;2024-01-06T04:50:58;5.60;87.80
63445;DHT22;49573;47.682;9.170;2024-01-06T04:53:45;5.60;87.80
63445;DHT22;49573;47.682;9.170;2024-01-06T04:56:31;5.50;87.60
63445;DHT22;49573;47.682;9.170;2024-01-06T04:59:17;5.50;87.80
63445;DHT22;49573;47.682;9.170;2024-01-06T05:02:03;5.50;87.90
63445;DHT22;49573;47.682;9.170;2024-01-06T05:04:50;5.50;87.90
63445;DHT22;49573;47.682;9.170;2024-01-06T05:07:36;5.50;88.00
63445;DHT22;49573;47.682;9.170;2024-01-06T05:10:23;5.60;88.10
63445;DHT22;49573;47.682;9.170;2024-01-06T05:13:09;5.50;87.80
63445;DHT22;49573;47.682;9.170;2024-01-06T05:15:55;5.50;87.50
63445;DHT22;49573;47.682;9.170;2024-01-06T05:18:41;5.50;87.70
63445;DHT22;49573;47.682;9.170;2024-01-06T05:21:27;5.60;87.80
63445;DHT22;49573;47.682;9.170;2024-01-06T05:24:13;5.60;87.90
63445;DHT22;49573;47.682;9.170;2024-01-06T05:27:01;5.60;88.10
63445;DHT22;49573;47.682;9.170;2024-01-06T05:29:47;5.50;88.00
63445;DHT22;49573;47.682;9.170;2024-01-06T05:32:34;5.60;88.00
63445;DHT22;49573;47.682;9.170;2024-01-06T05:35:20;5.60;88.00
63445;DHT22;49573;47.682;9.170;2024-01-06T05:38:06;5.60;88.00
63445;DHT22;49573;47.682;9.170;2024-01-06T05:40:52;5.50;88.20
63445;DHT22;49573;47.682;9.170;2024-01-06T05:43:40;5.50;88.10
63445;DHT22;49573;47.682;9.170;2024-01-06T05:46:26;5.50;88.20
63445;DHT22;49573;47.682;9.170;2024-01-06T05:49:12;5.50;88.10
63445;DHT22;49573;47.682;9.170;2024-01-06T05:51:58;5.50;88.00
63445;DHT22;49573;47.682;9.170;2024-01-06T05:54:44;5.50;87.50
63445;DHT22;49573;47.682;9.170;2024-01-06T05:57:30;5.40;87.40
63445;DHT22;49573;47.682;9.170;2024-01-06T06:00:18;5.40;87.30
63445;DHT22;49573;47.682;9.170;2024-01-06T06:03:04;5.30;87.30
63445;DHT22;49573;47.682;9.170;2024-01-06T06:05:50;5.30;86.90
63445;DHT22;49573;47.682;9.170;2024-01-06T06:08:36;5.30;86.80
63445;DHT22;49573;47.682;9.170;2024-01-06T06:11:22;5.30;86.70
63445;DHT22;49573;47.682;9.170;2024-01-06T06:14:08;5.30;86.50
63445;DHT22;49573;47.682;9.170;2024-01-06T06:16:56;5.30;86.30
63445;DHT22;49573;47.682;9.170;2024-01-06T06:19:42;5.30;86.50
63445;DHT22;49573;47.682;9.170;2024-01-06T06:22:28;5.30;86.50
63445;DHT22;49573;47.682;9.170;2024-01-06T06:25:17;5.30;86.60
63445;DHT22;49573;47.682;9.170;2024-01-06T06:28:04;5.30;86.70
63445;DHT22;49573;47.682;9.170;2024-01-06T06:30:50;5.20;86.20
63445;DHT22;49573;47.682;9.170;2024-01-06T06:33:37;5.30;86.30
63445;DHT22;49573;47.682;9.170;2024-01-06T06:36:25;5.20;86.20
63445;DHT22;49573;47.682;9.170;2024-01-06T06:39:11;5.10;86.10
63445;DHT22;49573;47.682;9.170;2024-01-06T06:41:57;5.10;86.80
63445;DHT22;49573;47.682;9.170;2024-01-06T06:44:43;5.10;86.80
63445;DHT22;49573;47.682;9.170;2024-01-06T06:47:29;5.20;87.00
63445;DHT22;49573;47.682;9.170;2024-01-06T06:50:16;5.20;87.30
63445;DHT22;49573;47.682;9.170;2024-01-06T06:53:03;5.20;87.00
63445;DHT22;49573;47.682;9.170;2024-01-06T06:55:49;5.10;86.60
63445;DHT22;49573;47.682;9.170;2024-01-06T06:58:35;5.20;86.70
63445;DHT22;49573;47.682;9.170;2024-01-06T07:01:21;5.20;87.10
63445;DHT22;49573;47.682;9.170;2024-01-06T07:04:07;5.20;87.20
63445;DHT22;49573;47.682;9.170;2024-01-06T07:06:54;5.20;87.30
63445;DHT22;49573;47.682;9.170;2024-01-06T07:09:40;5.20;87.40
63445;DHT22;49573;47.682;9.170;2024-01-06T07:12:27;5.20;87.20
63445;DHT22;49573;47.682;9.170;2024-01-06T07:15:13;5.20;87.40
63445;DHT22;49573;47.682;9.170;2024-01-06T07:17:59;5.10;85.70
63445;DHT22;49573;47.682;9.170;2024-01-06T07:20:45;5.10;86.10
63445;DHT22;49573;47.682;9.170;2024-01-06T07:23:32;5.10;86.90
63445;DHT22;49573;47.682;9.170;2024-01-06T07:26:18;5.20;87.30
63445;DHT22;49573;47.682;9.170;2024-01-06T07:29:04;5.20;87.50
63445;DHT22;49573;47.682;9.170;2024-01-06T07:31:50;5.20;87.60
63445;DHT22;49573;47.682;9.170;2024-01-06T07:34:36;5.20;87.70
63445;DHT22;49573;47.682;9.170;2024-01-06T07:37:22;5.20;87.60
63445;DHT22;49573;47.682;9.170;2024-01-06T07:40:11;5.20;87.70
63445;DHT22;49573;47.682;9.170;2024-01-06T07:42:58;5.20;87.70
63445;DHT22;49573;47.682;9.170;2024-01-06T07:45:44;5.10;87.80
63445;DHT22;49573;47.682;9.170;2024-01-06T07:48:30;5.20;87.80
63445;DHT22;49573;47.682;9.170;2024-01-06T07:51:16;5.20;87.80
63445;DHT22;49573;47.682;9.170;2024-01-06T07:54:03;5.20;87.70
63445;DHT22;49573;47.682;9.170;2024-01-06T07:56:52;5.20;87.70
63445;DHT22;49573;47.682;9.170;2024-01-06T07:59:38;5.20;87.60
63445;DHT22;49573;47.682;9.170;2024-01-06T08:02:24;5.20;86.90
63445;DHT22;49573;47.682;9.170;2024-01-06T08:05:10;5.20;86.20
63445;DHT22;49573;47.682;9.170;2024-01-06T08:07:56;5.10;86.10
63445;DHT22;49573;47.682;9.170;2024-01-06T08:10:42;5.10;86.60
63445;DHT22;49573;47.682;9.170;2024-01-06T08:13:30;5.10;86.60
63445;DHT22;49573;47.682;9.170;2024-01-06T08:16:16;5.10;86.60
63445;DHT22;49573;47.682;9.170;2024-01-06T08:19:02;5.10;86.50
63445;DHT22;49573;47.682;9.170;2024-01-06T08:21:48;5.10;86.50
63445;DHT22;49573;47.682;9.170;2024-01-06T08:24:34;5.00;86.60
63445;DHT22;49573;47.682;9.170;2024-01-06T08:27:20;5.10;86.50
63445;DHT22;49573;47.682;9.170;2024-01-06T08:30:09;5.10;86.80
63445;DHT22;49573;47.682;9.170;2024-01-06T08:32:56;5.10;86.60
63445;DHT22;49573;47.682;9.170;2024-01-06T08:35:42;5.20;86.50
63445;DHT22;49573;47.682;9.170;2024-01-06T08:38:28;5.20;86.80
63445;DHT22;49573;47.682;9.170;2024-01-06T08:41:14;5.20;86.70
63445;DHT22;49573;47.682;9.170;2024-01-06T08:44:00;5.30;86.90
63445;DHT22;49573;47.682;9.170;2024-01-06T08:46:47;5.30;86.40
63445;DHT22;49573;47.682;9.170;2024-01-06T08:49:33;5.30;86.40
63445;DHT22;49573;47.682;9.170;2024-01-06T08:52:19;5.30;86.20
63445;DHT22;49573;47.682;9.170;2024-01-06T08:55:06;5.30;86.20
63445;DHT22;49573;47.682;9.170;2024-01-06T08:57:52;5.30;86.40
63445;DHT22;49573;47.682;9.170;2024-01-06T09:00:38;5.20;85.40
63445;DHT22;49573;47.682;9.170;2024-01-06T09:03:25;5.30;86.30
63445;DHT22;49573;47.682;9.170;2024-01-06T09:06:12;5.30;86.80
63445;DHT22;49573;47.682;9.170;2024-01-06T09:08:58;5.30;86.00
63445;DHT22;49573;47.682;9.170;2024-01-06T09:11:44;5.40;85.90
63445;DHT22;49573;47.682;9.170;2024-01-06T09:14:30;5.40;86.00
63445;DHT22;49573;47.682;9.170;2024-01-06T09:17:16;5.30;85.50
63445;DHT22;49573;47.682;9.170;2024-01-06T09:20:04;5.20;85.30
63445;DHT22;49573;47.682;9.170;2024-01-06T09:22:50;5.20;85.20
63445;DHT22;49573;47.682;9.170;2024-01-06T09:25:36;5.30;85.50
63445;DHT22;49573;47.682;9.170;2024-01-06T09:28:22;5.40;86.00
63445;DHT22;49573;47.682;9.170;2024-01-06T09:31:08;5.40;85.90
63445;DHT22;49573;47.682;9.170;2024-01-06T09:33:54;5.30;85.40
63445;DHT22;49573;47.682;9.170;2024-01-06T09:36:42;5.40;85.40
63445;DHT22;49573;47.682;9.170;2024-01-06T09:39:28;5.50;86.00
63445;DHT22;49573;47.682;9.170;2024-01-06T09:42:14;5.50;85.20
63445;DHT22;49573;47.682;9.170;2024-01-06T09:45:00;5.60;85.40
63445;DHT22;49573;47.682;9.170;2024-01-06T09:47:49;5.50;85.20
63445;DHT22;49573;47.682;9.170;2024-01-06T09:50:35;5.50;84.90
63445;DHT22;49573;47.682;9.170;2024-01-06T09:53:23;5.50;84.70
63445;DHT22;49573;47.682;9.170;2024-01-06T09:56:15;5.40;84.30
63445;DHT22;49573;47.682;9.170;2024-01-06T09:59:02;5.50;85.00
63445;DHT22;49573;47.682;9.170;2024-01-06T10:01:48;5.60;84.60
63445;DHT22;49573;47.682;9.170;2024-01-06T10:04:35;5.60;84.30
63445;DHT22;49573;47.682;9.170;2024-01-06T10:07:21;5.60;84.60
63445;DHT22;49573;47.682;9.170;2024-01-06T10:10:09;5.50;84.40
63445;DHT22;49573;47.682;9.170;2024-01-06T10:12:56;5.60;84.50
63445;DHT22;49573;47.682;9.170;2024-01-06T10:15:42;5.70;85.00
63445;DHT22;49573;47.682;9.170;2024-01-06T10:18:28;5.70;85.00
63445;DHT22;49573;47.682;9.170;2024-01-06T10:21:15;5.70;84.80
63445;DHT22;49573;47.682;9.170;2024-01-06T10:24:03;5.70;85.30
63445;DHT22;49573;47.682;9.170;2024-01-06T10:26:51;5.70;84.80
63445;DHT22;49573;47.682;9.170;2024-01-06T10:29:37;5.70;84.80
63445;DHT22;49573;47.682;9.170;2024-01-06T10:32:23;5.60;85.10
63445;DHT22;49573;47.682;9.170;2024-01-06T10:35:14;5.60;84.90
63445;DHT22;49573;47.682;9.170;2024-01-06T10:38:01;5.60;85.20
63445;DHT22;49573;47.682;9.170;2024-01-06T10:40:57;5.50;85.30
63445;DHT22;49573;47.682;9.170;2024-01-06T10:43:46;5.60;85.50
63445;DHT22;49573;47.682;9.170;2024-01-06T10:46:34;5.50;85.40
63445;DHT22;49573;47.682;9.170;2024-01-06T10:49:22;5.50;85.90
63445;DHT22;49573;47.682;9.170;2024-01-06T10:52:09;5.50;85.70
63445;DHT22;49573;47.682;9.170;2024-01-06T10:54:56;5.40;85.30
63445;DHT22;49573;47.682;9.170;2024-01-06T10:57:43;5.50;85.40
63445;DHT22;49573;47.682;9.170;2024-01-06T11:00:31;5.60;85.70
63445;DHT22;49573;47.682;9.170;2024-01-06T11:03:17;5.60;86.00
63445;DHT22;49573;47.682;9.170;2024-01-06T11:06:04;5.70;86.00
63445;DHT22;49573;47.682;9.170;2024-01-06T11:08:54;5.70;85.50
63445;DHT22;49573;47.682;9.170;2024-01-06T11:11:43;5.70;85.70
63445;DHT22;49573;47.682;9.170;2024-01-06T11:14:29;5.80;85.70
63445;DHT22;49573;47.682;9.170;2024-01-06T11:17:50;5.90;85.80
63445;DHT22;49573;47.682;9.170;2024-01-06T11:21:15;5.90;85.60
63445;DHT22;49573;47.682;9.170;2024-01-06T11:24:19;5.90;84.80
63445;DHT22;49573;47.682;9.170;2024-01-06T11:27:17;6.00;84.40
63445;DHT22;49573;47.682;9.170;2024-01-06T11:30:04;6.00;84.80
63445;DHT22;49573;47.682;9.170;2024-01-06T11:32:56;5.90;84.20
63445;DHT22;49573;47.682;9.170;2024-01-06T11:35:44;5.90;83.90
63445;DHT22;49573;47.682;9.170;2024-01-06T11:38:37;5.70;83.70
63445;DHT22;49573;47.682;9.170;2024-01-06T11:41:44;5.70;83.70
63445;DHT22;49573;47.682;9.170;2024-01-06T11:44:34;5.80;84.10
63445;DHT22;49573;47.682;9.170;2024-01-06T11:47:20;5.80;83.60
63445;DHT22;49573;47.682;9.170;2024-01-06T11:50:10;5.70;83.20
63445;DHT22;49573;47.682;9.170;2024-01-06T11:52:56;5.70;83.60
63445;DHT22;49573;47.682;9.170;2024-01-06T11:55:42;5.70;84.20
63445;DHT22;49573;47.682;9.170;2024-01-06T11:58:28;5.70;84.40
63445;DHT22;49573;47.682;9.170;2024-01-06T12:01:14;5.70;84.30
63445;DHT22;49573;47.682;9.170;2024-01-06T12:04:01;5.80;84.00
63445;DHT22;49573;47.682;9.170;2024-01-06T12:06:50;5.80;83.60
63445;DHT22;49573;47.682;9.170;2024-01-06T12:09:36;5.70;83.40
63445;DHT22;49573;47.682;9.170;2024-01-06T12:12:22;5.70;83.30
63445;DHT22;49573;47.682;9.170;2024-01-06T12:15:09;5.70;83.50
63445;DHT22;49573;47.682;9.170;2024-01-06T12:17:56;5.80;82.80
63445;DHT22;49573;47.682;9.170;2024-01-06T12:20:42;5.70;83.20
63445;DHT22;49573;47.682;9.170;2024-01-06T12:23:30;5.80;83.40
63445;DHT22;49573;47.682;9.170;2024-01-06T12:26:16;5.70;83.30
63445;DHT22;49573;47.682;9.170;2024-01-06T12:29:04;5.80;83.30
63445;DHT22;49573;47.682;9.170;2024-01-06T12:31:49;5.70;83.10
63445;DHT22;49573;47.682;9.170;2024-01-06T12:34:36;5.80;83.40
63445;DHT22;49573;47.682;9.170;2024-01-06T12:37:22;5.80;83.40
63445;DHT22;49573;47.682;9.170;2024-01-06T12:40:12;5.80;83.50
63445;DHT22;49573;47.682;9.170;2024-01-06T12:42:58;5.70;83.00
63445;DHT22;49573;47.682;9.170;2024-01-06T12:45:44;5.70;83.30
63445;DHT22;49573;47.682;9.170;2024-01-06T12:48:30;5.70;83.30
63445;DHT22;49573;47.682;9.170;2024-01-06T12:51:16;5.80;83.60
63445;DHT22;49573;47.682;9.170;2024-01-06T12:54:03;5.70;83.30
63445;DHT22;49573;47.682;9.170;2024-01-06T12:56:50;5.80;84.00
63445;DHT22;49573;47.682;9.170;2024-01-06T12:59:37;5.80;83.50
63445;DHT22;49573;47.682;9.170;2024-01-06T13:02:23;5.70;83.60
63445;DHT22;49573;47.682;9.170;2024-01-06T13:05:09;5.70;83.80
63445;DHT22;49573;47.682;9.170;2024-01-06T13:07:55;5.70;83.50
63445;DHT22;49573;47.682;9.170;2024-01-06T13:10:41;5.80;83.60
63445;DHT22;49573;47.682;9.170;2024-01-06T13:13:28;5.90;83.90
63445;DHT22;49573;47.682;9.170;2024-01-06T13:16:17;5.90;83.60
63445;DHT22;49573;47.682;9.170;2024-01-06T13:19:03;5.90;83.30
63445;DHT22;49573;47.682;9.170;2024-01-06T13:21:50;6.00;83.00
63445;DHT22;49573;47.682;9.170;2024-01-06T13:24:36;5.90;82.60
63445;DHT22;49573;47.682;9.170;2024-01-06T13:27:22;5.80;83.00
63445;DHT22;49573;47.682;9.170;2024-01-06T13:30:10;5.80;83.80
63445;DHT22;49573;47.682;9.170;2024-01-06T13:32:58;5.90;83.60
63445;DHT22;49573;47.682;9.170;2024-01-06T13:35:44;5.90;83.30
63445;DHT22;49573;47.682;9.170;2024-01-06T13:38:30;5.80;83.50
63445;DHT22;49573;47.682;9.170;2024-01-06T13:41:17;5.90;83.50
63445;DHT22;49573;47.682;9.170;2024-01-06T13:44:03;5.80;83.50
63445;DHT22;49573;47.682;9.170;2024-01-06T13:46:50;5.80;83.90
63445;DHT22;49573;47.682;9.170;2024-01-06T13:49:37;5.80;83.70
63445;DHT22;49573;47.682;9.170;2024-01-06T13:52:23;5.80;83.70
63445;DHT22;49573;47.682;9.170;2024-01-06T13:55:09;5.80;83.50
63445;DHT22;49573;47.682;9.170;2024-01-06T13:57:56;5.80;83.90
63445;DHT22;49573;47.682;9.170;2024-01-06T14:00:42;5.80;83.40
63445;DHT22;49573;47.682;9.170;2024-01-06T14:03:30;5.80;83.70
63445;DHT22;49573;47.682;9.170;2024-01-06T14:06:16;5.80;83.40
63445;DHT22;49573;47.682;9.170;2024-01-06T14:09:03;5.80;83.60
63445;DHT22;49573;47.682;9.170;2024-01-06T14:11:51;5.80;83.50
63445;DHT22;49573;47.682;9.170;2024-01-06T14:14:38;5.70;83.70
63445;DHT22;49573;47.682;9.170;2024-01-06T14:17:24;5.70;84.10
63445;DHT22;49573;47.682;9.170;2024-01-06T14:20:12;5.80;84.30
63445;DHT22;49573;47.682;9.170;2024-01-06T14:22:58;5.70;84.40
63445;DHT22;49573;47.682;9.170;2024-01-06T14:25:44;5.70;84.30
63445;DHT22;49573;47.682;9.170;2024-01-06T14:28:30;5.70;84.30
63445;DHT22;49573;47.682;9.170;2024-01-06T14:31:17;5.70;84.20
63445;DHT22;49573;47.682;9.170;2024-01-06T14:34:03;5.70;84.60
63445;DHT22;49573;47.682;9.170;2024-01-06T14:36:50;5.80;84.20
63445;DHT22;49573;47.682;9.170;2024-01-06T14:39:36;5.80;84.50
63445;DHT22;49573;47.682;9.170;2024-01-06T14:42:22;5.80;84.60
63445;DHT22;49573;47.682;9.170;2024-01-06T14:45:09;5.90;85.00
63445;DHT22;49573;47.682;9.170;2024-01-06T14:47:55;5.90;84.90
63445;DHT22;49573;47.682;9.170;2024-01-06T14:50:41;5.80;85.00
63445;DHT22;49573;47.682;9.170;2024-01-06T14:53:29;5.80;84.80
63445;DHT22;49573;47.682;9.170;2024-01-06T14:56:14;5.80;84.90
63445;DHT22;49573;47.682;9.170;2024-01-06T14:59:01;5.80;85.10
63445;DHT22;49573;47.682;9.170;2024-01-06T15:01:47;5.80;85.00
63445;DHT22;49573;47.682;9.170;2024-01-06T15:04:33;5.70;85.00
63445;DHT22;49573;47.682;9.170;2024-01-06T15:07:19;5.70;85.60
63445;DHT22;49573;47.682;9.170;2024-01-06T15:10:07;5.70;85.30
63445;DHT22;49573;47.682;9.170;2024-01-06T15:12:55;5.70;85.50
63445;DHT22;49573;47.682;9.170;2024-01-06T15:15:41;5.70;85.10
63445;DHT22;49573;47.682;9.170;2024-01-06T15:18:27;5.70;85.30
63445;DHT22;49573;47.682;9.170;2024-01-06T15:21:13;5.60;85.10
63445;DHT22;49573;47.682;9.170;2024-01-06T15:24:01;5.60;85.30
63445;DHT22;49573;47.682;9.170;2024-01-06T15:26:48;5.70;85.40
63445;DHT22;49573;47.682;9.170;2024-01-06T15:29:34;5.70;85.80
63445;DHT22;49573;47.682;9.170;2024-01-06T15:32:20;5.70;86.10
63445;DHT22;49573;47.682;9.170;2024-01-06T15:35:07;5.80;86.10
63445;DHT22;49573;47.682;9.170;2024-01-06T15:37:55;5.70;86.30
63445;DHT22;49573;47.682;9.170;2024-01-06T15:40:41;5.80;86.40
63445;DHT22;49573;47.682;9.170;2024-01-06T15:43:28;5.70;86.50
63445;DHT22;49573;47.682;9.170;2024-01-06T15:46:14;5.70;86.50
63445;DHT22;49573;47.682;9.170;2024-01-06T15:49:02;5.70;86.50
63445;DHT22;49573;47.682;9.170;2024-01-06T15:51:49;5.70;86.70
63445;DHT22;49573;47.682;9.170;2024-01-06T15:54:35;5.70;86.90
63445;DHT22;49573;47.682;9.170;2024-01-06T15:57:21;5.70;86.70
63445;DHT22;49573;47.682;9.170;2024-01-06T16:00:09;5.70;86.70
63445;DHT22;49573;47.682;9.170;2024-01-06T16:02:56;5.70;86.70
63445;DHT22;49573;47.682;9.170;2024-01-06T16:05:42;5.70;86.60
63445;DHT22;49573;47.682;9.170;2024-01-06T16:08:30;5.70;86.50
63445;DHT22;49573;47.682;9.170;2024-01-06T16:11:17;5.70;86.50
63445;DHT22;49573;47.682;9.170;2024-01-06T16:14:03;5.60;86.40
63445;DHT22;49573;47.682;9.170;2024-01-06T16:16:51;5.60;86.60
63445;DHT22;49573;47.682;9.170;2024-01-06T16:19:37;5.70;86.70
63445;DHT22;49573;47.682;9.170;2024-01-06T16:22:23;5.70;86.70
63445;DHT22;49573;47.682;9.170;2024-01-06T16:25:10;5.70;86.80
63445;DHT22;49573;47.682;9.170;2024-01-06T16:27:56;5.60;86.70
63445;DHT22;49573;47.682;9.170;2024-01-06T16:30:42;5.70;86.80
63445;DHT22;49573;47.682;9.170;2024-01-06T16:33:29;5.60;86.90
63445;DHT22;49573;47.682;9.170;2024-01-06T16:36:15;5.60;87.10
63445;DHT22;49573;47.682;9.170;2024-01-06T16:39:01;5.60;87.10
63445;DHT22;49573;47.682;9.170;2024-01-06T16:41:48;5.50;87.30
63445;DHT22;49573;47.682;9.170;2024-01-06T16:44:34;5.60;87.00
63445;DHT22;49573;47.682;9.170;2024-01-06T16:47:20;5.50;87.20
63445;DHT22;49573;47.682;9.170;2024-01-06T16:50:08;5.50;87.10
63445;DHT22;49573;47.682;9.170;2024-01-06T16:52:54;5.50;87.30
63445;DHT22;49573;47.682;9.170;2024-01-06T16:55:40;5.50;87.10
63445;DHT22;49573;47.682;9.170;2024-01-06T16:58:26;5.50;87.20
63445;DHT22;49573;47.682;9.170;2024-01-06T17:01:12;5.50;87.10
63445;DHT22;49573;47.682;9.170;2024-01-06T17:03:59;5.50;87.30
63445;DHT22;49573;47.682;9.170;2024-01-06T17:06:47;5.50;87.30
63445;DHT22;49573;47.682;9.170;2024-01-06T17:09:33;5.50;87.40
63445;DHT22;49573;47.682;9.170;2024-01-06T17:12:19;5.50;87.40
63445;DHT22;49573;47.682;9.170;2024-01-06T17:15:06;5.50;87.30
63445;DHT22;49573;47.682;9.170;2024-01-06T17:17:52;5.50;87.40
63445;DHT22;49573;47.682;9.170;2024-01-06T17:20:38;5.50;87.30
63445;DHT22;49573;47.682;9.170;2024-01-06T17:23:26;5.50;87.40
63445;DHT22;49573;47.682;9.170;2024-01-06T17:26:12;5.50;87.30
63445;DHT22;49573;47.682;9.170;2024-01-06T17:28:58;5.50;87.20
63445;DHT22;49573;47.682;9.170;2024-01-06T17:31:45;5.50;86.90
63445;DHT22;49573;47.682;9.170;2024-01-06T17:34:31;5.50;86.90
63445;DHT22;49573;47.682;9.170;2024-01-06T17:37:17;5.50;87.20
63445;DHT22;49573;47.682;9.170;2024-01-06T17:40:05;5.50;87.20
63445;DHT22;49573;47.682;9.170;2024-01-06T17:42:52;5.50;87.10
63445;DHT22;49573;47.682;9.170;2024-01-06T17:45:38;5.50;87.10
63445;DHT22;49573;47.682;9.170;2024-01-06T17:48:24;5.50;87.10
63445;DHT22;49573;47.682;9.170;2024-01-06T17:51:10;5.50;87.10